Terminal Aerodrome Forecast
Issued by NWS Quad Cities IA IL

Home | Current Version | Previous Version | Text Only | Print | Product List | Glossary On
Versions: 1 2 3 4 5 6 7 8 9 10 11 12 13 14 15 16 17 18 19 20 21 22 23 24 25 26 27 28 29 30
000
FTUS43 KDVN 261300 AAA
TAFMLI
TAF AMD
KMLI 261337Z 2614/2712 08003KT P6SM BKN018
     FM261600 11006KT P6SM SCT018 BKN150
     FM261800 VRB04KT P6SM SCT040 BKN100
      TEMPO 2622/2701 4SM TSRA BKN030CB OVC050
     FM270800 29005KT P6SM SKC=

USA.gov is the U.S. government's official web portal to all federal, state and local government web resources and services.